• Join FlightAware (Why Join?)
  • Login
  • US Flag 
05:36AM EST


 

Airport Tracker/Info


-or-


 

Live Flight TrackerFlight Track Log ✈ LYM1725 ✈ 04-May-2013 ✈ KDEN - KLAR

Flight Track Log - Related Links

Times and Time Zones

All times are in EDT time to prevent confusion due to time zone crossing. See the LYM1725 flight status page for this flight to view local times or setup timezone preferences in your user account.

Time Position Orientation Groundspeed Altitude Reporting Facility
EDT Latitude Longitude Course Direction KTS MPH feet Rate Location/Type
08:59AM 39.8333 -104.7167 341° North 173 199 8,100  Level Denver TRACON
09:00AM 39.8500 -104.7667 293° West 177 204 10,000 1,200 Climbing Denver TRACON
09:01AM 39.8653 -104.7942 306° West 178 205 10,000  Level Denver Center
09:02AM 39.8958 -104.8719 297° West 235 270 10,000  Level Denver Center
09:03AM 39.9425 -104.9528 307° West 264 304 10,000  Level Denver Center
09:04AM 40.0236 -104.9886 341° North 267 307 10,000 480 Level Denver Center
09:05AM 40.1217 -104.7948 341° North  Level FlightAware Approximate
09:05AM 40.0992 -105.0050 351° North 249 287 11,000  Level Denver Center
09:06AM 40.1675 -104.9958 North 247 284 11,300  Climbing Denver Center
09:07AM 40.2431 -104.9917 North 268 308 11,000 -180 Descending Denver Center
09:08AM 40.3192 -104.9950 358° North 273 314 11,000 240 Level Denver Center
09:09AM 40.3925 -105.0003 357° North 267 307 11,500 540 Climbing Denver Center
09:10AM 40.4625 -105.0050 357° North 256 295 12,100 900 Climbing Denver Center
09:11AM 40.5306 -105.0064 359° North 244 281 13,400 900 Climbing Denver Center
09:12AM 40.6031 -105.0039 North 242 278 14,000 300 Climbing Denver Center
09:13AM 40.6764 -105.0028 North 262 302 14,100  Climbing Denver Center
09:14AM 40.7461 -105.0136 353° North 273 314 14,000  Descending Denver Center
09:15AM 40.8039 -105.0733 322° Northwest 266 306 14,100  Climbing Denver Center
09:16AM 40.8533 -105.1489 311° West 269 310 14,100 -120 Level Denver Center
09:17AM 40.9119 -105.2147 320° Northwest 273 314 13,900 -60 Descending Denver Center
09:18AM 40.9664 -105.2817 317° Northwest 268 308 14,000  Climbing Denver Center
09:19AM 41.0219 -105.3619 313° West 274 315 14,000  Level Denver Center
09:20AM 41.0792 -105.4183 323° Northwest 271 312 14,000 -1,200 Level Denver Center
09:21AM 41.1472 -105.4917 321° Northwest 279 321 11,600 -2,400 Descending Denver Center